Terminal Aerodrome Forecast
Issued by NWS

Home | Current Version | Previous Version | Text Only | Print | Product List | Glossary On
Versions: 1 2 3 4 5 6 7 8 9 10 11 12 13 14 15 16
000
FTUS46 KEKA 191125
TAFCEC
TAF
KCEC 191125Z 1912/2012 10006KT P6SM BKN250
     FM191600 15007KT P6SM FEW070 BKN200
     FM192200 17013KT P6SM BKN070 OVC150
     FM200300 17015KT P6SM -RA SCT020 OVC040
     FM200600 17015G22KT 4SM -RA BR SCT015 OVC030 WS020/20035KT=

USA.gov is the U.S. government's official web portal to all federal, state and local government web resources and services.